sensor_id;sensor_type;location;lat;lon;timestamp;noise_LAeq;noise_LA_min;noise_LA_max;noise_LA01;noise_LA95
68279;Laerm;55108;51.790;10.960;2023-04-16T00:01:45;59.23;38.89;77.05;;
68279;Laerm;55108;51.790;10.960;2023-04-16T00:04:10;59.71;38.86;79.16;;
68279;Laerm;55108;51.790;10.960;2023-04-16T00:06:35;40.54;37.63;48.83;;
68279;Laerm;55108;51.790;10.960;2023-04-16T00:09:00;41.05;36.08;51.23;;
68279;Laerm;55108;51.790;10.960;2023-04-16T00:11:25;39.68;36.65;48.15;;
68279;Laerm;55108;51.790;10.960;2023-04-16T00:13:51;62.14;36.53;80.89;;
68279;Laerm;55108;51.790;10.960;2023-04-16T00:16:16;37.86;34.71;44.53;;
68279;Laerm;55108;51.790;10.960;2023-04-16T00:18:41;61.12;34.10;77.49;;
68279;Laerm;55108;51.790;10.960;2023-04-16T00:21:06;46.40;37.34;61.66;;
68279;Laerm;55108;51.790;10.960;2023-04-16T00:23:31;59.77;37.17;78.96;;
68279;Laerm;55108;51.790;10.960;2023-04-16T00:25:56;60.59;37.14;76.11;;
68279;Laerm;55108;51.790;10.960;2023-04-16T00:28:23;39.64;36.18;46.78;;
68279;Laerm;55108;51.790;10.960;2023-04-16T00:30:49;40.34;37.64;46.87;;
68279;Laerm;55108;51.790;10.960;2023-04-16T00:33:14;41.74;37.51;50.60;;
68279;Laerm;55108;51.790;10.960;2023-04-16T00:35:40;44.33;41.19;62.20;;
68279;Laerm;55108;51.790;10.960;2023-04-16T00:38:06;42.61;39.29;51.29;;
68279;Laerm;55108;51.790;10.960;2023-04-16T00:40:31;40.61;36.79;50.69;;
68279;Laerm;55108;51.790;10.960;2023-04-16T00:42:56;39.29;35.99;48.74;;
68279;Laerm;55108;51.790;10.960;2023-04-16T00:45:21;39.25;35.38;46.69;;
68279;Laerm;55108;51.790;10.960;2023-04-16T00:47:46;37.91;35.04;44.82;;
68279;Laerm;55108;51.790;10.960;2023-04-16T00:50:11;38.92;35.03;53.37;;
68279;Laerm;55108;51.790;10.960;2023-04-16T00:52:37;59.22;35.14;76.38;;
68279;Laerm;55108;51.790;10.960;2023-04-16T00:55:02;37.97;34.55;45.07;;
68279;Laerm;55108;51.790;10.960;2023-04-16T00:57:27;56.39;34.39;73.59;;
68279;Laerm;55108;51.790;10.960;2023-04-16T00:59:53;57.91;35.24;73.28;;
68279;Laerm;55108;51.790;10.960;2023-04-16T01:02:18;58.80;33.98;72.36;;
68279;Laerm;55108;51.790;10.960;2023-04-16T01:04:43;36.51;33.31;45.81;;
68279;Laerm;55108;51.790;10.960;2023-04-16T01:07:08;36.48;33.10;44.47;;
68279;Laerm;55108;51.790;10.960;2023-04-16T01:09:33;35.87;32.30;45.71;;
68279;Laerm;55108;51.790;10.960;2023-04-16T01:11:58;36.12;32.82;47.92;;
68279;Laerm;55108;51.790;10.960;2023-04-16T01:14:23;36.26;32.99;44.87;;
68279;Laerm;55108;51.790;10.960;2023-04-16T01:16:49;36.24;32.50;42.70;;
68279;Laerm;55108;51.790;10.960;2023-04-16T01:19:14;34.88;31.33;46.37;;
68279;Laerm;55108;51.790;10.960;2023-04-16T01:21:39;35.59;31.82;43.43;;
68279;Laerm;55108;51.790;10.960;2023-04-16T01:24:04;35.20;31.48;44.57;;
68279;Laerm;55108;51.790;10.960;2023-04-16T01:26:30;36.72;31.21;48.83;;
68279;Laerm;55108;51.790;10.960;2023-04-16T01:28:55;35.24;31.50;42.39;;
68279;Laerm;55108;51.790;10.960;2023-04-16T01:31:20;35.27;31.95;46.95;;
68279;Laerm;55108;51.790;10.960;2023-04-16T01:33:45;35.18;31.34;43.79;;
68279;Laerm;55108;51.790;10.960;2023-04-16T01:36:10;36.48;32.48;44.29;;
68279;Laerm;55108;51.790;10.960;2023-04-16T01:38:35;37.02;32.37;46.01;;
68279;Laerm;55108;51.790;10.960;2023-04-16T01:41:01;36.11;32.55;44.43;;
68279;Laerm;55108;51.790;10.960;2023-04-16T01:43:26;60.71;32.62;77.36;;
68279;Laerm;55108;51.790;10.960;2023-04-16T01:45:52;35.74;32.62;45.39;;
68279;Laerm;55108;51.790;10.960;2023-04-16T01:48:19;36.96;32.20;52.12;;
68279;Laerm;55108;51.790;10.960;2023-04-16T01:50:44;35.37;31.04;42.84;;
68279;Laerm;55108;51.790;10.960;2023-04-16T01:53:09;34.78;30.99;45.86;;
68279;Laerm;55108;51.790;10.960;2023-04-16T01:55:35;34.53;30.55;48.84;;
68279;Laerm;55108;51.790;10.960;2023-04-16T01:58:00;52.88;31.22;69.34;;
68279;Laerm;55108;51.790;10.960;2023-04-16T02:00:25;60.56;30.55;78.11;;
68279;Laerm;55108;51.790;10.960;2023-04-16T02:02:50;54.35;30.72;69.12;;
68279;Laerm;55108;51.790;10.960;2023-04-16T02:05:15;34.34;29.99;48.72;;
68279;Laerm;55108;51.790;10.960;2023-04-16T02:07:40;37.63;31.00;59.90;;
68279;Laerm;55108;51.790;10.960;2023-04-16T02:10:05;33.77;30.34;40.21;;
68279;Laerm;55108;51.790;10.960;2023-04-16T02:12:32;36.54;30.36;48.75;;
68279;Laerm;55108;51.790;10.960;2023-04-16T02:14:57;35.00;31.01;41.95;;
68279;Laerm;55108;51.790;10.960;2023-04-16T02:17:22;36.05;31.53;46.85;;
68279;Laerm;55108;51.790;10.960;2023-04-16T02:19:47;55.29;32.25;73.60;;
68279;Laerm;55108;51.790;10.960;2023-04-16T02:22:12;58.52;32.83;73.16;;
68279;Laerm;55108;51.790;10.960;2023-04-16T02:24:37;35.94;31.88;42.77;;
68279;Laerm;55108;51.790;10.960;2023-04-16T02:27:02;40.24;32.33;59.06;;
68279;Laerm;55108;51.790;10.960;2023-04-16T02:29:28;53.69;32.45;69.23;;
68279;Laerm;55108;51.790;10.960;2023-04-16T02:31:53;35.60;31.47;42.15;;
68279;Laerm;55108;51.790;10.960;2023-04-16T02:34:18;35.29;31.84;43.14;;
68279;Laerm;55108;51.790;10.960;2023-04-16T02:36:43;39.69;31.24;59.90;;
68279;Laerm;55108;51.790;10.960;2023-04-16T02:39:08;64.31;30.80;81.49;;
68279;Laerm;55108;51.790;10.960;2023-04-16T02:41:33;34.58;31.06;42.58;;
68279;Laerm;55108;51.790;10.960;2023-04-16T02:43:58;34.06;30.66;41.33;;
68279;Laerm;55108;51.790;10.960;2023-04-16T02:46:23;37.41;30.47;48.92;;
68279;Laerm;55108;51.790;10.960;2023-04-16T02:48:49;36.84;30.80;48.94;;
68279;Laerm;55108;51.790;10.960;2023-04-16T02:51:14;34.61;30.76;53.43;;
68279;Laerm;55108;51.790;10.960;2023-04-16T02:53:39;34.32;30.78;40.53;;
68279;Laerm;55108;51.790;10.960;2023-04-16T02:56:04;36.22;31.98;45.22;;
68279;Laerm;55108;51.790;10.960;2023-04-16T02:58:30;34.88;30.38;45.46;;
68279;Laerm;55108;51.790;10.960;2023-04-16T03:00:55;35.37;31.11;43.53;;
68279;Laerm;55108;51.790;10.960;2023-04-16T03:03:20;35.56;32.74;46.87;;
68279;Laerm;55108;51.790;10.960;2023-04-16T03:05:45;37.04;32.62;48.97;;
68279;Laerm;55108;51.790;10.960;2023-04-16T03:08:11;42.13;32.85;56.56;;
68279;Laerm;55108;51.790;10.960;2023-04-16T03:10:36;60.87;35.25;80.60;;
68279;Laerm;55108;51.790;10.960;2023-04-16T03:13:01;54.26;35.36;70.60;;
68279;Laerm;55108;51.790;10.960;2023-04-16T03:15:26;45.87;35.22;60.49;;
68279;Laerm;55108;51.790;10.960;2023-04-16T03:17:52;54.61;34.04;72.64;;
68279;Laerm;55108;51.790;10.960;2023-04-16T03:20:17;47.38;35.21;60.63;;
68279;Laerm;55108;51.790;10.960;2023-04-16T03:22:43;62.54;36.86;77.96;;
68279;Laerm;55108;51.790;10.960;2023-04-16T03:25:08;57.18;35.57;76.67;;
68279;Laerm;55108;51.790;10.960;2023-04-16T03:27:33;62.43;34.17;79.78;;
68279;Laerm;55108;51.790;10.960;2023-04-16T03:29:59;53.70;34.97;69.49;;
68279;Laerm;55108;51.790;10.960;2023-04-16T03:32:24;57.69;34.39;74.33;;
68279;Laerm;55108;51.790;10.960;2023-04-16T03:34:49;53.82;34.76;72.18;;
68279;Laerm;55108;51.790;10.960;2023-04-16T03:37:14;53.96;36.91;73.70;;
68279;Laerm;55108;51.790;10.960;2023-04-16T03:39:40;62.98;36.69;79.52;;
68279;Laerm;55108;51.790;10.960;2023-04-16T03:42:05;62.32;37.54;79.62;;
68279;Laerm;55108;51.790;10.960;2023-04-16T03:44:30;59.62;36.37;78.81;;
68279;Laerm;55108;51.790;10.960;2023-04-16T03:46:55;63.11;36.57;77.69;;
68279;Laerm;55108;51.790;10.960;2023-04-16T03:49:20;66.18;37.91;82.78;;
68279;Laerm;55108;51.790;10.960;2023-04-16T03:51:45;50.93;37.88;66.82;;
68279;Laerm;55108;51.790;10.960;2023-04-16T03:54:11;48.97;37.07;60.16;;
68279;Laerm;55108;51.790;10.960;2023-04-16T03:56:36;53.18;36.81;66.01;;
68279;Laerm;55108;51.790;10.960;2023-04-16T03:59:03;55.43;38.38;70.09;;
68279;Laerm;55108;51.790;10.960;2023-04-16T04:01:28;61.31;37.96;81.30;;
68279;Laerm;55108;51.790;10.960;2023-04-16T04:03:53;61.75;39.92;75.34;;
68279;Laerm;55108;51.790;10.960;2023-04-16T04:06:18;62.16;38.86;78.66;;
68279;Laerm;55108;51.790;10.960;2023-04-16T04:08:44;60.78;37.59;75.74;;
68279;Laerm;55108;51.790;10.960;2023-04-16T04:11:09;64.89;39.04;82.84;;
68279;Laerm;55108;51.790;10.960;2023-04-16T04:13:34;50.48;37.37;65.77;;
68279;Laerm;55108;51.790;10.960;2023-04-16T04:15:59;54.56;37.32;69.28;;
68279;Laerm;55108;51.790;10.960;2023-04-16T04:18:25;63.11;37.56;79.61;;
68279;Laerm;55108;51.790;10.960;2023-04-16T04:20:50;49.85;38.94;63.27;;
68279;Laerm;55108;51.790;10.960;2023-04-16T04:23:15;49.70;37.56;62.74;;
68279;Laerm;55108;51.790;10.960;2023-04-16T04:25:40;65.14;38.62;82.84;;
68279;Laerm;55108;51.790;10.960;2023-04-16T04:28:06;62.70;38.84;81.19;;
68279;Laerm;55108;51.790;10.960;2023-04-16T04:30:31;59.68;36.19;75.27;;
68279;Laerm;55108;51.790;10.960;2023-04-16T04:32:56;57.10;37.97;69.90;;
68279;Laerm;55108;51.790;10.960;2023-04-16T04:35:21;58.93;37.28;75.10;;
68279;Laerm;55108;51.790;10.960;2023-04-16T04:37:46;59.45;38.11;78.55;;
68279;Laerm;55108;51.790;10.960;2023-04-16T04:40:11;49.95;36.86;64.29;;
68279;Laerm;55108;51.790;10.960;2023-04-16T04:42:37;57.39;37.57;74.10;;
68279;Laerm;55108;51.790;10.960;2023-04-16T04:45:02;48.81;36.00;62.69;;
68279;Laerm;55108;51.790;10.960;2023-04-16T04:47:27;53.25;36.50;69.42;;
68279;Laerm;55108;51.790;10.960;2023-04-16T04:49:52;60.96;36.09;76.43;;
68279;Laerm;55108;51.790;10.960;2023-04-16T04:52:17;48.63;36.74;62.86;;
68279;Laerm;55108;51.790;10.960;2023-04-16T04:54:44;48.03;38.97;62.10;;
68279;Laerm;55108;51.790;10.960;2023-04-16T04:57:09;62.00;40.90;79.78;;
68279;Laerm;55108;51.790;10.960;2023-04-16T04:59:34;58.80;40.15;74.50;;
68279;Laerm;55108;51.790;10.960;2023-04-16T05:01:59;59.96;39.99;80.81;;
68279;Laerm;55108;51.790;10.960;2023-04-16T05:04:26;59.87;40.67;81.18;;
68279;Laerm;55108;51.790;10.960;2023-04-16T05:06:51;65.67;40.37;83.19;;
68279;Laerm;55108;51.790;10.960;2023-04-16T05:09:16;62.58;42.00;79.36;;
68279;Laerm;55108;51.790;10.960;2023-04-16T05:11:42;45.07;40.95;58.66;;
68279;Laerm;55108;51.790;10.960;2023-04-16T05:14:07;64.02;41.69;81.34;;
68279;Laerm;55108;51.790;10.960;2023-04-16T05:16:34;56.32;41.22;72.84;;
68279;Laerm;55108;51.790;10.960;2023-04-16T05:19:00;62.85;41.61;80.96;;
68279;Laerm;55108;51.790;10.960;2023-04-16T05:21:25;60.01;40.00;76.01;;
68279;Laerm;55108;51.790;10.960;2023-04-16T05:23:50;60.76;40.53;79.03;;
68279;Laerm;55108;51.790;10.960;2023-04-16T05:26:15;55.10;40.54;78.22;;
68279;Laerm;55108;51.790;10.960;2023-04-16T05:28:40;61.49;40.40;80.27;;
68279;Laerm;55108;51.790;10.960;2023-04-16T05:31:05;58.31;40.41;74.11;;
68279;Laerm;55108;51.790;10.960;2023-04-16T05:33:30;60.28;40.96;78.86;;
68279;Laerm;55108;51.790;10.960;2023-04-16T05:35:56;62.80;41.99;79.46;;
68279;Laerm;55108;51.790;10.960;2023-04-16T05:38:21;65.13;41.24;78.04;;
68279;Laerm;55108;51.790;10.960;2023-04-16T05:40:46;61.36;41.84;80.82;;
68279;Laerm;55108;51.790;10.960;2023-04-16T05:43:11;64.79;41.21;78.05;;
68279;Laerm;55108;51.790;10.960;2023-04-16T05:45:36;65.65;40.55;80.05;;
68279;Laerm;55108;51.790;10.960;2023-04-16T05:48:08;60.12;40.00;75.86;;
68279;Laerm;55108;51.790;10.960;2023-04-16T05:50:34;60.79;40.22;80.81;;
68279;Laerm;55108;51.790;10.960;2023-04-16T05:52:59;60.96;40.60;77.12;;
68279;Laerm;55108;51.790;10.960;2023-04-16T05:55:24;62.43;40.24;82.08;;
68279;Laerm;55108;51.790;10.960;2023-04-16T05:57:49;65.09;40.17;80.66;;
68279;Laerm;55108;51.790;10.960;2023-04-16T06:00:15;61.17;39.76;82.20;;
68279;Laerm;55108;51.790;10.960;2023-04-16T06:02:40;62.41;38.44;79.19;;
68279;Laerm;55108;51.790;10.960;2023-04-16T06:05:05;61.84;38.23;79.35;;
68279;Laerm;55108;51.790;10.960;2023-04-16T06:07:30;62.84;39.40;77.65;;
68279;Laerm;55108;51.790;10.960;2023-04-16T06:09:55;65.28;40.59;76.70;;
68279;Laerm;55108;51.790;10.960;2023-04-16T06:12:21;69.72;42.56;84.49;;
68279;Laerm;55108;51.790;10.960;2023-04-16T06:14:46;62.55;39.69;78.13;;
68279;Laerm;55108;51.790;10.960;2023-04-16T06:17:11;66.85;39.73;80.81;;
68279;Laerm;55108;51.790;10.960;2023-04-16T06:19:36;65.35;38.98;80.43;;
68279;Laerm;55108;51.790;10.960;2023-04-16T06:22:01;65.49;39.11;81.23;;
68279;Laerm;55108;51.790;10.960;2023-04-16T06:24:26;58.12;37.69;73.66;;
68279;Laerm;55108;51.790;10.960;2023-04-16T06:26:51;65.58;38.69;83.73;;
68279;Laerm;55108;51.790;10.960;2023-04-16T06:29:18;66.83;40.89;81.78;;
68279;Laerm;55108;51.790;10.960;2023-04-16T06:31:43;60.39;38.58;75.54;;
68279;Laerm;55108;51.790;10.960;2023-04-16T06:34:08;64.15;39.87;78.40;;
68279;Laerm;55108;51.790;10.960;2023-04-16T06:36:33;67.52;40.36;81.49;;
68279;Laerm;55108;51.790;10.960;2023-04-16T06:38:58;67.14;37.94;83.16;;
68279;Laerm;55108;51.790;10.960;2023-04-16T06:41:23;62.53;37.19;80.74;;
68279;Laerm;55108;51.790;10.960;2023-04-16T06:43:50;62.08;36.87;74.75;;
68279;Laerm;55108;51.790;10.960;2023-04-16T06:46:15;66.75;40.07;81.18;;
68279;Laerm;55108;51.790;10.960;2023-04-16T06:48:40;64.91;38.61;80.24;;
68279;Laerm;55108;51.790;10.960;2023-04-16T06:51:05;65.75;36.73;81.34;;
68279;Laerm;55108;51.790;10.960;2023-04-16T06:53:31;60.92;36.71;76.75;;
68279;Laerm;55108;51.790;10.960;2023-04-16T06:55:56;68.51;39.39;83.15;;
68279;Laerm;55108;51.790;10.960;2023-04-16T06:58:22;56.22;36.59;72.64;;
68279;Laerm;55108;51.790;10.960;2023-04-16T07:00:47;61.81;37.00;80.34;;
68279;Laerm;55108;51.790;10.960;2023-04-16T07:03:12;62.81;36.93;80.78;;
68279;Laerm;55108;51.790;10.960;2023-04-16T07:05:37;65.20;38.61;83.57;;
68279;Laerm;55108;51.790;10.960;2023-04-16T07:08:03;64.08;37.52;77.47;;
68279;Laerm;55108;51.790;10.960;2023-04-16T07:10:28;67.48;36.68;82.45;;
68279;Laerm;55108;51.790;10.960;2023-04-16T07:12:53;59.33;36.66;74.47;;
68279;Laerm;55108;51.790;10.960;2023-04-16T07:15:18;63.05;37.18;80.13;;
68279;Laerm;55108;51.790;10.960;2023-04-16T07:17:43;61.95;39.39;73.56;;
68279;Laerm;55108;51.790;10.960;2023-04-16T07:20:08;65.58;39.82;78.68;;
68279;Laerm;55108;51.790;10.960;2023-04-16T07:22:34;64.12;41.04;78.07;;
68279;Laerm;55108;51.790;10.960;2023-04-16T07:24:59;61.42;37.61;74.98;;
68279;Laerm;55108;51.790;10.960;2023-04-16T07:27:24;65.73;36.58;80.69;;
68279;Laerm;55108;51.790;10.960;2023-04-16T07:29:49;64.56;38.33;77.50;;
68279;Laerm;55108;51.790;10.960;2023-04-16T07:32:14;65.07;40.82;77.98;;
68279;Laerm;55108;51.790;10.960;2023-04-16T07:34:40;66.38;45.55;80.14;;
68279;Laerm;55108;51.790;10.960;2023-04-16T07:37:05;62.68;40.17;80.02;;
68279;Laerm;55108;51.790;10.960;2023-04-16T07:39:30;66.52;41.77;78.17;;
68279;Laerm;55108;51.790;10.960;2023-04-16T07:41:55;66.65;40.34;78.12;;
68279;Laerm;55108;51.790;10.960;2023-04-16T07:44:20;67.38;46.03;79.28;;
68279;Laerm;55108;51.790;10.960;2023-04-16T07:46:45;68.05;41.10;81.16;;
68279;Laerm;55108;51.790;10.960;2023-04-16T07:49:10;66.64;48.13;77.48;;
68279;Laerm;55108;51.790;10.960;2023-04-16T07:51:35;60.94;41.38;73.32;;
68279;Laerm;55108;51.790;10.960;2023-04-16T07:54:01;68.34;43.54;79.73;;
68279;Laerm;55108;51.790;10.960;2023-04-16T07:56:26;68.71;47.11;78.72;;
68279;Laerm;55108;51.790;10.960;2023-04-16T07:58:51;66.78;42.16;78.16;;
68279;Laerm;55108;51.790;10.960;2023-04-16T08:01:16;65.77;39.91;79.15;;
68279;Laerm;55108;51.790;10.960;2023-04-16T08:03:41;67.51;42.84;82.05;;
68279;Laerm;55108;51.790;10.960;2023-04-16T08:06:07;66.31;43.04;76.93;;
68279;Laerm;55108;51.790;10.960;2023-04-16T08:08:32;66.20;41.27;78.98;;
68279;Laerm;55108;51.790;10.960;2023-04-16T08:10:57;70.26;43.10;84.09;;
68279;Laerm;55108;51.790;10.960;2023-04-16T08:13:23;63.04;39.81;77.68;;
68279;Laerm;55108;51.790;10.960;2023-04-16T08:15:48;67.32;49.37;78.72;;
68279;Laerm;55108;51.790;10.960;2023-04-16T08:18:13;69.67;49.05;78.85;;
68279;Laerm;55108;51.790;10.960;2023-04-16T08:20:39;66.28;44.26;77.89;;
68279;Laerm;55108;51.790;10.960;2023-04-16T08:23:04;67.51;39.49;78.90;;
68279;Laerm;55108;51.790;10.960;2023-04-16T08:25:29;67.05;45.51;82.24;;
68279;Laerm;55108;51.790;10.960;2023-04-16T08:27:55;67.18;42.15;78.76;;
68279;Laerm;55108;51.790;10.960;2023-04-16T08:30:20;68.30;42.86;79.81;;
68279;Laerm;55108;51.790;10.960;2023-04-16T08:32:45;65.84;43.06;80.31;;
68279;Laerm;55108;51.790;10.960;2023-04-16T08:35:10;67.51;41.62;79.00;;
68279;Laerm;55108;51.790;10.960;2023-04-16T08:37:36;68.06;46.13;79.33;;
68279;Laerm;55108;51.790;10.960;2023-04-16T08:40:01;67.57;42.89;77.43;;
68279;Laerm;55108;51.790;10.960;2023-04-16T08:42:30;65.83;48.54;77.41;;
68279;Laerm;55108;51.790;10.960;2023-04-16T08:45:05;66.41;43.59;78.23;;
68279;Laerm;55108;51.790;10.960;2023-04-16T08:47:31;67.86;42.70;79.15;;
68279;Laerm;55108;51.790;10.960;2023-04-16T08:49:58;64.54;40.96;77.32;;
68279;Laerm;55108;51.790;10.960;2023-04-16T08:52:24;67.94;42.20;78.77;;
68279;Laerm;55108;51.790;10.960;2023-04-16T08:54:52;66.14;37.80;78.65;;
68279;Laerm;55108;51.790;10.960;2023-04-16T08:57:21;66.93;42.01;78.34;;
68279;Laerm;55108;51.790;10.960;2023-04-16T08:59:47;63.72;45.35;76.49;;
68279;Laerm;55108;51.790;10.960;2023-04-16T09:02:12;60.71;41.67;75.65;;
68279;Laerm;55108;51.790;10.960;2023-04-16T09:04:38;65.42;41.97;80.29;;
68279;Laerm;55108;51.790;10.960;2023-04-16T09:07:03;68.28;47.68;79.11;;
68279;Laerm;55108;51.790;10.960;2023-04-16T09:09:31;64.84;38.96;76.75;;
68279;Laerm;55108;51.790;10.960;2023-04-16T09:11:57;67.77;41.71;80.10;;
68279;Laerm;55108;51.790;10.960;2023-04-16T09:14:22;66.97;44.52;77.87;;
68279;Laerm;55108;51.790;10.960;2023-04-16T09:16:47;67.26;42.17;77.13;;
68279;Laerm;55108;51.790;10.960;2023-04-16T09:19:13;69.60;41.76;81.02;;
68279;Laerm;55108;51.790;10.960;2023-04-16T09:21:39;68.04;41.20;78.03;;
68279;Laerm;55108;51.790;10.960;2023-04-16T09:24:04;67.15;42.36;79.78;;
68279;Laerm;55108;51.790;10.960;2023-04-16T09:26:30;64.16;39.36;78.65;;
68279;Laerm;55108;51.790;10.960;2023-04-16T09:28:56;67.99;36.92;78.17;;
68279;Laerm;55108;51.790;10.960;2023-04-16T09:31:21;65.75;44.21;77.38;;
68279;Laerm;55108;51.790;10.960;2023-04-16T09:34:07;68.94;44.09;79.02;;
68279;Laerm;55108;51.790;10.960;2023-04-16T09:36:32;66.98;44.10;78.06;;
68279;Laerm;55108;51.790;10.960;2023-04-16T09:38:58;68.45;40.68;79.89;;
68279;Laerm;55108;51.790;10.960;2023-04-16T09:41:24;66.57;42.73;77.82;;
68279;Laerm;55108;51.790;10.960;2023-04-16T09:43:54;68.62;38.96;78.12;;
68279;Laerm;55108;51.790;10.960;2023-04-16T09:46:20;62.40;42.22;75.49;;
68279;Laerm;55108;51.790;10.960;2023-04-16T09:48:45;66.63;46.74;77.07;;
68279;Laerm;55108;51.790;10.960;2023-04-16T09:51:11;66.57;38.54;80.49;;
68279;Laerm;55108;51.790;10.960;2023-04-16T09:53:36;64.48;38.87;74.80;;
68279;Laerm;55108;51.790;10.960;2023-04-16T09:56:02;65.97;42.09;78.05;;
68279;Laerm;55108;51.790;10.960;2023-04-16T09:58:27;68.85;49.89;77.80;;
68279;Laerm;55108;51.790;10.960;2023-04-16T10:01:09;66.68;48.47;76.95;;
68279;Laerm;55108;51.790;10.960;2023-04-16T10:03:35;68.11;44.39;78.82;;
68279;Laerm;55108;51.790;10.960;2023-04-16T10:06:05;66.29;47.69;76.18;;
68279;Laerm;55108;51.790;10.960;2023-04-16T10:08:31;67.15;42.56;77.37;;
68279;Laerm;55108;51.790;10.960;2023-04-16T10:10:56;65.36;39.82;76.19;;
68279;Laerm;55108;51.790;10.960;2023-04-16T10:13:21;68.45;40.84;77.75;;
68279;Laerm;55108;51.790;10.960;2023-04-16T10:15:47;68.36;48.03;82.01;;
68279;Laerm;55108;51.790;10.960;2023-04-16T10:18:12;66.04;42.29;76.23;;
68279;Laerm;55108;51.790;10.960;2023-04-16T10:20:38;64.19;39.00;74.63;;
68279;Laerm;55108;51.790;10.960;2023-04-16T10:23:03;67.45;40.85;79.85;;
68279;Laerm;55108;51.790;10.960;2023-04-16T10:25:29;67.47;47.16;80.12;;
68279;Laerm;55108;51.790;10.960;2023-04-16T10:27:55;66.81;40.51;77.27;;
68279;Laerm;55108;51.790;10.960;2023-04-16T10:30:21;62.77;37.52;77.00;;
68279;Laerm;55108;51.790;10.960;2023-04-16T10:32:46;65.57;35.58;76.75;;
68279;Laerm;55108;51.790;10.960;2023-04-16T10:35:17;65.36;43.85;75.47;;
68279;Laerm;55108;51.790;10.960;2023-04-16T10:37:43;67.17;39.38;79.72;;
68279;Laerm;55108;51.790;10.960;2023-04-16T10:40:24;66.90;40.99;78.98;;
68279;Laerm;55108;51.790;10.960;2023-04-16T10:42:56;64.45;38.06;79.43;;
68279;Laerm;55108;51.790;10.960;2023-04-16T10:45:29;67.39;40.97;79.27;;
68279;Laerm;55108;51.790;10.960;2023-04-16T10:47:55;63.16;37.45;74.63;;
68279;Laerm;55108;51.790;10.960;2023-04-16T10:50:21;68.35;50.17;81.78;;
68279;Laerm;55108;51.790;10.960;2023-04-16T10:52:46;66.83;40.47;79.91;;
68279;Laerm;55108;51.790;10.960;2023-04-16T10:55:18;67.66;46.71;76.20;;
68279;Laerm;55108;51.790;10.960;2023-04-16T10:57:43;66.92;43.26;79.37;;
68279;Laerm;55108;51.790;10.960;2023-04-16T11:00:22;65.89;42.01;76.79;;
68279;Laerm;55108;51.790;10.960;2023-04-16T11:02:51;67.22;40.90;78.87;;
68279;Laerm;55108;51.790;10.960;2023-04-16T11:05:18;66.76;39.40;77.20;;
68279;Laerm;55108;51.790;10.960;2023-04-16T11:07:46;65.93;41.58;79.25;;
68279;Laerm;55108;51.790;10.960;2023-04-16T11:10:12;69.40;38.33;79.71;;
68279;Laerm;55108;51.790;10.960;2023-04-16T11:12:38;65.79;38.87;77.57;;
68279;Laerm;55108;51.790;10.960;2023-04-16T11:15:04;68.98;40.57;80.33;;
68279;Laerm;55108;51.790;10.960;2023-04-16T11:17:40;68.15;43.39;78.73;;
68279;Laerm;55108;51.790;10.960;2023-04-16T11:20:21;67.86;40.94;78.16;;
68279;Laerm;55108;51.790;10.960;2023-04-16T11:22:50;68.87;43.12;79.68;;
68279;Laerm;55108;51.790;10.960;2023-04-16T11:25:19;68.21;44.58;82.52;;
68279;Laerm;55108;51.790;10.960;2023-04-16T11:27:45;68.75;47.63;81.29;;
68279;Laerm;55108;51.790;10.960;2023-04-16T11:30:10;66.50;43.07;76.48;;
68279;Laerm;55108;51.790;10.960;2023-04-16T11:32:36;71.21;41.38;93.84;;
68279;Laerm;55108;51.790;10.960;2023-04-16T11:35:02;68.69;40.72;87.55;;
68279;Laerm;55108;51.790;10.960;2023-04-16T11:37:32;67.21;39.65;79.72;;
68279;Laerm;55108;51.790;10.960;2023-04-16T11:40:01;66.77;44.22;78.36;;
68279;Laerm;55108;51.790;10.960;2023-04-16T11:42:28;63.01;37.76;79.10;;
68279;Laerm;55108;51.790;10.960;2023-04-16T11:44:54;65.80;37.34;78.41;;
68279;Laerm;55108;51.790;10.960;2023-04-16T11:47:19;65.02;42.06;77.09;;
68279;Laerm;55108;51.790;10.960;2023-04-16T11:49:45;64.58;39.41;74.73;;
68279;Laerm;55108;51.790;10.960;2023-04-16T11:52:10;67.44;42.08;79.08;;
68279;Laerm;55108;51.790;10.960;2023-04-16T11:54:36;65.03;39.40;77.41;;
68279;Laerm;55108;51.790;10.960;2023-04-16T11:57:01;64.53;38.29;77.55;;
68279;Laerm;55108;51.790;10.960;2023-04-16T11:59:28;68.27;43.17;83.70;;
68279;Laerm;55108;51.790;10.960;2023-04-16T12:01:54;67.68;38.08;81.51;;
68279;Laerm;55108;51.790;10.960;2023-04-16T12:04:25;68.55;47.53;78.55;;
68279;Laerm;55108;51.790;10.960;2023-04-16T12:07:03;65.79;36.40;80.04;;
68279;Laerm;55108;51.790;10.960;2023-04-16T12:09:29;67.99;40.81;83.01;;
68279;Laerm;55108;51.790;10.960;2023-04-16T12:11:54;66.77;39.97;77.68;;
68279;Laerm;55108;51.790;10.960;2023-04-16T12:14:19;65.94;42.34;78.18;;
68279;Laerm;55108;51.790;10.960;2023-04-16T12:16:45;66.78;40.78;78.30;;
68279;Laerm;55108;51.790;10.960;2023-04-16T12:19:11;67.16;41.52;78.06;;
68279;Laerm;55108;51.790;10.960;2023-04-16T12:24:01;66.33;47.19;77.79;;
68279;Laerm;55108;51.790;10.960;2023-04-16T12:26:26;66.37;38.65;80.35;;
68279;Laerm;55108;51.790;10.960;2023-04-16T12:28:51;66.15;40.83;78.52;;
68279;Laerm;55108;51.790;10.960;2023-04-16T12:31:16;67.06;40.19;77.15;;
68279;Laerm;55108;51.790;10.960;2023-04-16T12:33:41;67.03;44.78;80.22;;
68279;Laerm;55108;51.790;10.960;2023-04-16T12:36:17;66.62;42.79;79.25;;
68279;Laerm;55108;51.790;10.960;2023-04-16T12:38:42;68.56;42.85;80.71;;
68279;Laerm;55108;51.790;10.960;2023-04-16T12:41:07;66.84;38.42;77.49;;
68279;Laerm;55108;51.790;10.960;2023-04-16T12:43:32;66.45;42.31;78.66;;
68279;Laerm;55108;51.790;10.960;2023-04-16T12:45:57;65.27;40.17;80.97;;
68279;Laerm;55108;51.790;10.960;2023-04-16T12:48:23;64.89;36.75;79.07;;
68279;Laerm;55108;51.790;10.960;2023-04-16T12:50:48;67.43;41.05;79.84;;
68279;Laerm;55108;51.790;10.960;2023-04-16T12:53:13;67.24;45.60;77.22;;
68279;Laerm;55108;51.790;10.960;2023-04-16T12:55:38;65.66;42.94;75.50;;
68279;Laerm;55108;51.790;10.960;2023-04-16T12:58:03;68.37;43.53;79.14;;
68279;Laerm;55108;51.790;10.960;2023-04-16T13:00:28;68.65;41.37;81.50;;
68279;Laerm;55108;51.790;10.960;2023-04-16T13:02:53;67.12;41.80;77.70;;
68279;Laerm;55108;51.790;10.960;2023-04-16T13:05:18;67.44;39.65;77.78;;
68279;Laerm;55108;51.790;10.960;2023-04-16T13:07:44;67.58;43.58;77.75;;
68279;Laerm;55108;51.790;10.960;2023-04-16T13:10:09;65.95;40.99;79.79;;
68279;Laerm;55108;51.790;10.960;2023-04-16T13:12:35;67.21;39.54;79.81;;
68279;Laerm;55108;51.790;10.960;2023-04-16T13:15:00;68.31;46.84;79.33;;
68279;Laerm;55108;51.790;10.960;2023-04-16T13:17:25;65.78;45.29;76.01;;
68279;Laerm;55108;51.790;10.960;2023-04-16T13:19:51;66.63;39.36;78.30;;
68279;Laerm;55108;51.790;10.960;2023-04-16T13:22:16;64.45;39.03;77.31;;
68279;Laerm;55108;51.790;10.960;2023-04-16T13:24:41;65.59;39.91;77.31;;
68279;Laerm;55108;51.790;10.960;2023-04-16T13:27:06;67.01;45.56;81.72;;